sensor_id;sensor_type;location;lat;lon;timestamp;P1;durP1;ratioP1;P2;durP2;ratioP2
47960;SDS011;33721;48.852;9.936;2023-08-12T00:01:34;12.70;;;7.65;;
47960;SDS011;33721;48.852;9.936;2023-08-12T00:04:00;11.90;;;7.97;;
47960;SDS011;33721;48.852;9.936;2023-08-12T00:06:25;15.18;;;7.95;;
47960;SDS011;33721;48.852;9.936;2023-08-12T00:08:51;11.45;;;7.40;;
47960;SDS011;33721;48.852;9.936;2023-08-12T00:11:17;10.18;;;7.47;;
47960;SDS011;33721;48.852;9.936;2023-08-12T00:13:42;13.95;;;7.95;;
47960;SDS011;33721;48.852;9.936;2023-08-12T00:16:08;14.77;;;8.15;;
47960;SDS011;33721;48.852;9.936;2023-08-12T00:18:33;17.10;;;8.18;;
47960;SDS011;33721;48.852;9.936;2023-08-12T00:21:05;15.07;;;7.80;;
47960;SDS011;33721;48.852;9.936;2023-08-12T00:23:38;16.85;;;8.60;;
47960;SDS011;33721;48.852;9.936;2023-08-12T00:26:06;14.23;;;8.60;;
47960;SDS011;33721;48.852;9.936;2023-08-12T00:28:32;12.38;;;8.57;;
47960;SDS011;33721;48.852;9.936;2023-08-12T00:30:58;14.23;;;9.00;;
47960;SDS011;33721;48.852;9.936;2023-08-12T00:33:24;13.60;;;8.50;;
47960;SDS011;33721;48.852;9.936;2023-08-12T00:35:49;12.68;;;8.20;;
47960;SDS011;33721;48.852;9.936;2023-08-12T00:38:15;17.80;;;9.27;;
47960;SDS011;33721;48.852;9.936;2023-08-12T00:40:41;18.08;;;8.90;;
47960;SDS011;33721;48.852;9.936;2023-08-12T00:43:06;12.48;;;8.90;;
47960;SDS011;33721;48.852;9.936;2023-08-12T00:45:34;12.23;;;8.57;;
47960;SDS011;33721;48.852;9.936;2023-08-12T00:48:00;18.25;;;9.13;;
47960;SDS011;33721;48.852;9.936;2023-08-12T00:50:26;15.98;;;8.65;;
47960;SDS011;33721;48.852;9.936;2023-08-12T00:52:51;16.08;;;9.00;;
47960;SDS011;33721;48.852;9.936;2023-08-12T00:55:17;16.23;;;9.02;;
47960;SDS011;33721;48.852;9.936;2023-08-12T00:57:43;13.25;;;8.68;;
47960;SDS011;33721;48.852;9.936;2023-08-12T01:00:09;14.02;;;9.50;;
47960;SDS011;33721;48.852;9.936;2023-08-12T01:02:35;16.20;;;8.45;;
47960;SDS011;33721;48.852;9.936;2023-08-12T01:05:01;16.60;;;8.85;;
47960;SDS011;33721;48.852;9.936;2023-08-12T01:07:27;13.43;;;9.05;;
47960;SDS011;33721;48.852;9.936;2023-08-12T01:09:52;14.95;;;9.40;;
47960;SDS011;33721;48.852;9.936;2023-08-12T01:12:22;17.58;;;8.60;;
47960;SDS011;33721;48.852;9.936;2023-08-12T01:14:56;15.00;;;8.68;;
47960;SDS011;33721;48.852;9.936;2023-08-12T01:17:34;14.63;;;8.77;;
47960;SDS011;33721;48.852;9.936;2023-08-12T01:20:01;16.15;;;9.25;;
47960;SDS011;33721;48.852;9.936;2023-08-12T01:22:33;13.88;;;8.98;;
47960;SDS011;33721;48.852;9.936;2023-08-12T01:25:04;16.67;;;9.30;;
47960;SDS011;33721;48.852;9.936;2023-08-12T01:27:30;14.77;;;9.00;;
47960;SDS011;33721;48.852;9.936;2023-08-12T01:29:56;15.93;;;9.05;;
47960;SDS011;33721;48.852;9.936;2023-08-12T01:37:30;14.40;;;8.75;;
47960;SDS011;33721;48.852;9.936;2023-08-12T01:39:59;15.25;;;9.27;;
47960;SDS011;33721;48.852;9.936;2023-08-12T01:42:29;16.27;;;8.60;;
47960;SDS011;33721;48.852;9.936;2023-08-12T01:44:57;14.00;;;8.55;;
47960;SDS011;33721;48.852;9.936;2023-08-12T01:47:23;15.35;;;9.18;;
47960;SDS011;33721;48.852;9.936;2023-08-12T01:49:48;13.65;;;9.10;;
47960;SDS011;33721;48.852;9.936;2023-08-12T01:52:14;23.10;;;9.35;;
47960;SDS011;33721;48.852;9.936;2023-08-12T01:54:40;13.38;;;8.65;;
47960;SDS011;33721;48.852;9.936;2023-08-12T01:57:06;13.43;;;8.55;;
47960;SDS011;33721;48.852;9.936;2023-08-12T01:59:33;13.48;;;8.88;;
47960;SDS011;33721;48.852;9.936;2023-08-12T02:01:59;15.70;;;9.20;;
47960;SDS011;33721;48.852;9.936;2023-08-12T02:04:25;15.40;;;9.40;;
47960;SDS011;33721;48.852;9.936;2023-08-12T02:06:51;16.20;;;9.25;;
47960;SDS011;33721;48.852;9.936;2023-08-12T02:09:17;11.95;;;8.05;;
47960;SDS011;33721;48.852;9.936;2023-08-12T02:11:43;14.20;;;9.65;;
47960;SDS011;33721;48.852;9.936;2023-08-12T02:14:09;22.85;;;9.85;;
47960;SDS011;33721;48.852;9.936;2023-08-12T02:16:34;13.82;;;9.73;;
47960;SDS011;33721;48.852;9.936;2023-08-12T02:19:00;19.60;;;10.05;;
47960;SDS011;33721;48.852;9.936;2023-08-12T02:21:26;13.77;;;9.32;;
47960;SDS011;33721;48.852;9.936;2023-08-12T02:23:51;14.05;;;9.00;;
47960;SDS011;33721;48.852;9.936;2023-08-12T02:26:17;17.35;;;8.90;;
47960;SDS011;33721;48.852;9.936;2023-08-12T02:28:43;21.23;;;8.98;;
47960;SDS011;33721;48.852;9.936;2023-08-12T02:31:08;12.82;;;8.98;;
47960;SDS011;33721;48.852;9.936;2023-08-12T02:33:34;14.23;;;8.73;;
47960;SDS011;33721;48.852;9.936;2023-08-12T02:36:00;17.65;;;9.32;;
47960;SDS011;33721;48.852;9.936;2023-08-12T02:38:25;13.98;;;8.52;;
47960;SDS011;33721;48.852;9.936;2023-08-12T02:40:51;11.18;;;8.10;;
47960;SDS011;33721;48.852;9.936;2023-08-12T02:43:17;12.15;;;8.15;;
47960;SDS011;33721;48.852;9.936;2023-08-12T02:45:43;13.82;;;8.30;;
47960;SDS011;33721;48.852;9.936;2023-08-12T02:48:11;15.43;;;9.07;;
47960;SDS011;33721;48.852;9.936;2023-08-12T02:50:37;13.80;;;8.30;;
47960;SDS011;33721;48.852;9.936;2023-08-12T02:53:04;14.90;;;8.40;;
47960;SDS011;33721;48.852;9.936;2023-08-12T02:55:30;12.65;;;8.32;;
47960;SDS011;33721;48.852;9.936;2023-08-12T02:57:57;12.98;;;8.63;;
47960;SDS011;33721;48.852;9.936;2023-08-12T03:00:23;11.70;;;8.13;;
47960;SDS011;33721;48.852;9.936;2023-08-12T03:02:48;13.45;;;8.45;;
47960;SDS011;33721;48.852;9.936;2023-08-12T03:05:14;14.43;;;8.60;;
47960;SDS011;33721;48.852;9.936;2023-08-12T03:07:40;14.80;;;8.52;;
47960;SDS011;33721;48.852;9.936;2023-08-12T03:10:06;15.35;;;9.10;;
47960;SDS011;33721;48.852;9.936;2023-08-12T03:12:32;15.38;;;8.85;;
47960;SDS011;33721;48.852;9.936;2023-08-12T03:14:57;12.85;;;7.93;;
47960;SDS011;33721;48.852;9.936;2023-08-12T03:17:23;13.57;;;8.40;;
47960;SDS011;33721;48.852;9.936;2023-08-12T03:19:49;13.35;;;8.05;;
47960;SDS011;33721;48.852;9.936;2023-08-12T03:22:15;11.85;;;8.38;;
47960;SDS011;33721;48.852;9.936;2023-08-12T03:24:40;17.33;;;8.57;;
47960;SDS011;33721;48.852;9.936;2023-08-12T03:27:06;10.82;;;7.65;;
47960;SDS011;33721;48.852;9.936;2023-08-12T03:29:31;10.30;;;7.40;;
47960;SDS011;33721;48.852;9.936;2023-08-12T03:31:57;11.57;;;7.97;;
47960;SDS011;33721;48.852;9.936;2023-08-12T03:34:23;11.88;;;7.65;;
47960;SDS011;33721;48.852;9.936;2023-08-12T03:36:49;13.35;;;7.50;;
47960;SDS011;33721;48.852;9.936;2023-08-12T03:39:15;12.00;;;7.88;;
47960;SDS011;33721;48.852;9.936;2023-08-12T03:41:41;13.43;;;7.80;;
47960;SDS011;33721;48.852;9.936;2023-08-12T03:44:07;12.10;;;7.88;;
47960;SDS011;33721;48.852;9.936;2023-08-12T03:46:32;11.48;;;7.03;;
47960;SDS011;33721;48.852;9.936;2023-08-12T03:48:58;11.93;;;7.05;;
47960;SDS011;33721;48.852;9.936;2023-08-12T03:51:23;10.43;;;7.13;;
47960;SDS011;33721;48.852;9.936;2023-08-12T03:53:49;13.98;;;7.95;;
47960;SDS011;33721;48.852;9.936;2023-08-12T03:56:15;14.18;;;7.18;;
47960;SDS011;33721;48.852;9.936;2023-08-12T03:58:42;11.98;;;7.97;;
47960;SDS011;33721;48.852;9.936;2023-08-12T04:01:08;12.00;;;7.05;;
47960;SDS011;33721;48.852;9.936;2023-08-12T04:03:33;15.20;;;8.23;;
47960;SDS011;33721;48.852;9.936;2023-08-12T04:05:59;11.77;;;7.60;;
47960;SDS011;33721;48.852;9.936;2023-08-12T04:08:24;15.18;;;8.43;;
47960;SDS011;33721;48.852;9.936;2023-08-12T04:10:51;14.95;;;8.00;;
47960;SDS011;33721;48.852;9.936;2023-08-12T04:13:16;10.18;;;7.30;;
47960;SDS011;33721;48.852;9.936;2023-08-12T04:15:42;11.65;;;7.05;;
47960;SDS011;33721;48.852;9.936;2023-08-12T04:18:13;9.27;;;6.68;;
47960;SDS011;33721;48.852;9.936;2023-08-12T04:20:39;10.38;;;7.15;;
47960;SDS011;33721;48.852;9.936;2023-08-12T04:23:04;11.68;;;6.57;;
47960;SDS011;33721;48.852;9.936;2023-08-12T04:25:30;11.48;;;7.28;;
47960;SDS011;33721;48.852;9.936;2023-08-12T04:27:55;13.95;;;7.25;;
47960;SDS011;33721;48.852;9.936;2023-08-12T04:30:21;16.02;;;7.97;;
47960;SDS011;33721;48.852;9.936;2023-08-12T04:32:47;13.93;;;7.45;;
47960;SDS011;33721;48.852;9.936;2023-08-12T04:35:12;13.77;;;7.93;;
47960;SDS011;33721;48.852;9.936;2023-08-12T04:37:38;12.43;;;7.55;;
47960;SDS011;33721;48.852;9.936;2023-08-12T04:40:04;12.25;;;7.78;;
47960;SDS011;33721;48.852;9.936;2023-08-12T04:42:30;13.88;;;7.22;;
47960;SDS011;33721;48.852;9.936;2023-08-12T04:44:56;12.07;;;7.68;;
47960;SDS011;33721;48.852;9.936;2023-08-12T04:47:22;15.52;;;7.53;;
47960;SDS011;33721;48.852;9.936;2023-08-12T04:49:47;10.57;;;7.28;;
47960;SDS011;33721;48.852;9.936;2023-08-12T04:52:13;18.48;;;7.10;;
47960;SDS011;33721;48.852;9.936;2023-08-12T04:54:39;12.57;;;7.00;;
47960;SDS011;33721;48.852;9.936;2023-08-12T04:57:04;10.07;;;6.97;;
47960;SDS011;33721;48.852;9.936;2023-08-12T04:59:30;9.75;;;7.05;;
47960;SDS011;33721;48.852;9.936;2023-08-12T05:01:56;9.55;;;6.68;;
47960;SDS011;33721;48.852;9.936;2023-08-12T05:04:22;11.43;;;6.93;;
47960;SDS011;33721;48.852;9.936;2023-08-12T05:06:47;12.35;;;7.88;;
47960;SDS011;33721;48.852;9.936;2023-08-12T05:09:13;18.88;;;7.63;;
47960;SDS011;33721;48.852;9.936;2023-08-12T05:11:39;10.60;;;7.10;;
47960;SDS011;33721;48.852;9.936;2023-08-12T05:14:05;14.45;;;6.55;;
47960;SDS011;33721;48.852;9.936;2023-08-12T05:16:31;17.05;;;7.47;;
47960;SDS011;33721;48.852;9.936;2023-08-12T05:18:56;11.18;;;6.78;;
47960;SDS011;33721;48.852;9.936;2023-08-12T05:21:22;13.18;;;7.00;;
47960;SDS011;33721;48.852;9.936;2023-08-12T05:23:48;11.30;;;7.03;;
47960;SDS011;33721;48.852;9.936;2023-08-12T05:26:14;11.40;;;7.22;;
47960;SDS011;33721;48.852;9.936;2023-08-12T05:28:39;12.93;;;7.15;;
47960;SDS011;33721;48.852;9.936;2023-08-12T05:31:05;12.27;;;7.07;;
47960;SDS011;33721;48.852;9.936;2023-08-12T05:33:31;11.10;;;7.22;;
47960;SDS011;33721;48.852;9.936;2023-08-12T05:35:56;12.93;;;7.10;;
47960;SDS011;33721;48.852;9.936;2023-08-12T05:38:22;14.85;;;7.22;;
47960;SDS011;33721;48.852;9.936;2023-08-12T05:40:48;15.00;;;7.28;;
47960;SDS011;33721;48.852;9.936;2023-08-12T05:43:13;11.18;;;6.95;;
47960;SDS011;33721;48.852;9.936;2023-08-12T05:45:39;12.75;;;7.88;;
47960;SDS011;33721;48.852;9.936;2023-08-12T05:48:05;14.25;;;6.68;;
47960;SDS011;33721;48.852;9.936;2023-08-12T05:50:30;12.98;;;7.07;;
47960;SDS011;33721;48.852;9.936;2023-08-12T05:52:56;11.00;;;6.65;;
47960;SDS011;33721;48.852;9.936;2023-08-12T05:55:22;10.82;;;7.32;;
47960;SDS011;33721;48.852;9.936;2023-08-12T05:57:47;14.50;;;7.55;;
47960;SDS011;33721;48.852;9.936;2023-08-12T06:00:13;12.50;;;7.50;;
47960;SDS011;33721;48.852;9.936;2023-08-12T06:02:39;12.63;;;6.75;;
47960;SDS011;33721;48.852;9.936;2023-08-12T06:05:04;9.68;;;6.72;;
47960;SDS011;33721;48.852;9.936;2023-08-12T06:07:30;9.55;;;6.45;;
47960;SDS011;33721;48.852;9.936;2023-08-12T06:09:56;12.40;;;6.88;;
47960;SDS011;33721;48.852;9.936;2023-08-12T06:12:22;14.45;;;7.80;;
47960;SDS011;33721;48.852;9.936;2023-08-12T06:14:47;11.18;;;7.28;;
47960;SDS011;33721;48.852;9.936;2023-08-12T06:17:13;12.35;;;8.07;;
47960;SDS011;33721;48.852;9.936;2023-08-12T06:19:38;13.10;;;7.10;;
47960;SDS011;33721;48.852;9.936;2023-08-12T06:22:05;14.88;;;7.32;;
47960;SDS011;33721;48.852;9.936;2023-08-12T06:24:30;15.65;;;7.72;;
47960;SDS011;33721;48.852;9.936;2023-08-12T06:26:56;10.00;;;7.07;;
47960;SDS011;33721;48.852;9.936;2023-08-12T06:29:22;8.95;;;6.50;;
47960;SDS011;33721;48.852;9.936;2023-08-12T06:31:47;12.13;;;6.93;;
47960;SDS011;33721;48.852;9.936;2023-08-12T06:34:13;10.75;;;7.13;;
47960;SDS011;33721;48.852;9.936;2023-08-12T06:36:39;20.33;;;9.02;;
47960;SDS011;33721;48.852;9.936;2023-08-12T06:39:04;14.27;;;8.63;;
47960;SDS011;33721;48.852;9.936;2023-08-12T06:41:30;9.90;;;7.05;;
47960;SDS011;33721;48.852;9.936;2023-08-12T06:43:55;8.73;;;6.43;;
47960;SDS011;33721;48.852;9.936;2023-08-12T06:46:21;13.98;;;7.07;;
47960;SDS011;33721;48.852;9.936;2023-08-12T06:48:47;10.45;;;6.85;;
47960;SDS011;33721;48.852;9.936;2023-08-12T06:51:12;9.80;;;6.22;;
47960;SDS011;33721;48.852;9.936;2023-08-12T06:53:38;9.90;;;6.50;;
47960;SDS011;33721;48.852;9.936;2023-08-12T06:56:04;12.98;;;6.53;;
47960;SDS011;33721;48.852;9.936;2023-08-12T06:58:30;13.43;;;6.95;;
47960;SDS011;33721;48.852;9.936;2023-08-12T07:00:56;13.38;;;8.00;;
47960;SDS011;33721;48.852;9.936;2023-08-12T07:03:24;12.15;;;7.88;;
47960;SDS011;33721;48.852;9.936;2023-08-12T07:05:49;11.13;;;7.15;;
47960;SDS011;33721;48.852;9.936;2023-08-12T07:08:15;13.95;;;7.45;;
47960;SDS011;33721;48.852;9.936;2023-08-12T07:10:41;11.35;;;6.90;;
47960;SDS011;33721;48.852;9.936;2023-08-12T07:13:07;14.65;;;7.32;;
47960;SDS011;33721;48.852;9.936;2023-08-12T07:15:32;11.65;;;6.78;;
47960;SDS011;33721;48.852;9.936;2023-08-12T07:17:58;10.07;;;6.85;;
47960;SDS011;33721;48.852;9.936;2023-08-12T07:20:24;8.00;;;5.82;;
47960;SDS011;33721;48.852;9.936;2023-08-12T07:22:50;14.63;;;7.15;;
47960;SDS011;33721;48.852;9.936;2023-08-12T07:25:16;11.30;;;6.78;;
47960;SDS011;33721;48.852;9.936;2023-08-12T07:27:42;15.43;;;7.53;;
47960;SDS011;33721;48.852;9.936;2023-08-12T07:30:08;11.07;;;6.88;;
47960;SDS011;33721;48.852;9.936;2023-08-12T07:32:35;11.25;;;6.35;;
47960;SDS011;33721;48.852;9.936;2023-08-12T07:35:02;10.80;;;6.55;;
47960;SDS011;33721;48.852;9.936;2023-08-12T07:37:28;10.27;;;6.75;;
47960;SDS011;33721;48.852;9.936;2023-08-12T07:39:54;11.90;;;6.97;;
47960;SDS011;33721;48.852;9.936;2023-08-12T07:42:20;20.83;;;8.32;;
47960;SDS011;33721;48.852;9.936;2023-08-12T07:44:45;11.07;;;7.22;;
47960;SDS011;33721;48.852;9.936;2023-08-12T07:47:11;18.17;;;7.35;;
47960;SDS011;33721;48.852;9.936;2023-08-12T07:49:37;10.85;;;7.53;;
47960;SDS011;33721;48.852;9.936;2023-08-12T07:52:03;14.75;;;7.20;;
47960;SDS011;33721;48.852;9.936;2023-08-12T07:54:29;11.30;;;6.75;;
47960;SDS011;33721;48.852;9.936;2023-08-12T07:56:54;15.43;;;7.18;;
47960;SDS011;33721;48.852;9.936;2023-08-12T07:59:20;14.20;;;7.07;;
47960;SDS011;33721;48.852;9.936;2023-08-12T08:01:46;9.35;;;6.50;;
47960;SDS011;33721;48.852;9.936;2023-08-12T08:04:12;9.43;;;7.05;;
47960;SDS011;33721;48.852;9.936;2023-08-12T08:06:37;11.80;;;6.97;;
47960;SDS011;33721;48.852;9.936;2023-08-12T08:09:03;10.85;;;6.20;;
47960;SDS011;33721;48.852;9.936;2023-08-12T08:11:29;14.50;;;8.10;;
47960;SDS011;33721;48.852;9.936;2023-08-12T08:13:57;10.50;;;6.50;;
47960;SDS011;33721;48.852;9.936;2023-08-12T08:16:23;8.48;;;6.32;;
47960;SDS011;33721;48.852;9.936;2023-08-12T08:18:49;11.77;;;6.65;;
47960;SDS011;33721;48.852;9.936;2023-08-12T08:21:14;15.00;;;8.05;;
47960;SDS011;33721;48.852;9.936;2023-08-12T08:23:41;13.68;;;7.40;;
47960;SDS011;33721;48.852;9.936;2023-08-12T08:26:06;10.05;;;6.60;;
47960;SDS011;33721;48.852;9.936;2023-08-12T08:28:32;8.90;;;6.22;;
47960;SDS011;33721;48.852;9.936;2023-08-12T08:30:59;10.65;;;6.47;;
47960;SDS011;33721;48.852;9.936;2023-08-12T08:33:25;11.68;;;6.93;;
47960;SDS011;33721;48.852;9.936;2023-08-12T08:35:51;10.93;;;6.28;;
47960;SDS011;33721;48.852;9.936;2023-08-12T08:38:17;14.32;;;6.88;;
47960;SDS011;33721;48.852;9.936;2023-08-12T08:40:42;8.63;;;6.50;;
47960;SDS011;33721;48.852;9.936;2023-08-12T08:43:08;10.18;;;5.97;;
47960;SDS011;33721;48.852;9.936;2023-08-12T08:45:34;9.40;;;6.78;;
47960;SDS011;33721;48.852;9.936;2023-08-12T08:48:01;10.68;;;6.55;;
47960;SDS011;33721;48.852;9.936;2023-08-12T08:50:27;9.90;;;6.13;;
47960;SDS011;33721;48.852;9.936;2023-08-12T08:52:55;9.02;;;5.97;;
47960;SDS011;33721;48.852;9.936;2023-08-12T08:55:21;10.35;;;6.40;;
47960;SDS011;33721;48.852;9.936;2023-08-12T08:57:48;18.17;;;6.22;;
47960;SDS011;33721;48.852;9.936;2023-08-12T09:00:15;9.20;;;6.28;;
47960;SDS011;33721;48.852;9.936;2023-08-12T09:02:41;14.50;;;6.60;;
47960;SDS011;33721;48.852;9.936;2023-08-12T09:05:09;9.77;;;6.15;;
47960;SDS011;33721;48.852;9.936;2023-08-12T09:07:36;7.93;;;6.10;;
47960;SDS011;33721;48.852;9.936;2023-08-12T09:10:02;7.38;;;6.10;;
47960;SDS011;33721;48.852;9.936;2023-08-12T09:12:29;10.93;;;6.47;;
47960;SDS011;33721;48.852;9.936;2023-08-12T09:14:55;8.85;;;6.57;;
47960;SDS011;33721;48.852;9.936;2023-08-12T09:17:20;9.82;;;6.00;;
47960;SDS011;33721;48.852;9.936;2023-08-12T09:19:46;12.75;;;6.35;;
47960;SDS011;33721;48.852;9.936;2023-08-12T09:22:12;10.63;;;5.68;;
47960;SDS011;33721;48.852;9.936;2023-08-12T09:24:37;13.45;;;6.55;;
47960;SDS011;33721;48.852;9.936;2023-08-12T09:27:03;7.63;;;5.75;;
47960;SDS011;33721;48.852;9.936;2023-08-12T09:29:30;10.70;;;6.38;;
47960;SDS011;33721;48.852;9.936;2023-08-12T09:32:06;7.63;;;6.07;;
47960;SDS011;33721;48.852;9.936;2023-08-12T09:34:32;9.05;;;6.22;;
47960;SDS011;33721;48.852;9.936;2023-08-12T09:36:58;8.88;;;5.82;;
47960;SDS011;33721;48.852;9.936;2023-08-12T09:39:23;11.02;;;6.20;;
47960;SDS011;33721;48.852;9.936;2023-08-12T09:41:49;9.25;;;6.30;;
47960;SDS011;33721;48.852;9.936;2023-08-12T09:44:16;11.15;;;6.18;;
47960;SDS011;33721;48.852;9.936;2023-08-12T09:46:42;10.40;;;5.95;;
47960;SDS011;33721;48.852;9.936;2023-08-12T09:49:07;8.13;;;6.10;;
47960;SDS011;33721;48.852;9.936;2023-08-12T09:51:34;12.15;;;5.95;;
47960;SDS011;33721;48.852;9.936;2023-08-12T09:54:01;8.95;;;6.45;;
47960;SDS011;33721;48.852;9.936;2023-08-12T09:56:27;7.75;;;5.68;;
47960;SDS011;33721;48.852;9.936;2023-08-12T09:59:01;9.32;;;5.72;;
47960;SDS011;33721;48.852;9.936;2023-08-12T10:01:30;11.03;;;5.60;;
47960;SDS011;33721;48.852;9.936;2023-08-12T10:03:56;10.15;;;5.82;;
47960;SDS011;33721;48.852;9.936;2023-08-12T10:06:22;18.40;;;5.63;;
47960;SDS011;33721;48.852;9.936;2023-08-12T10:08:49;8.20;;;5.55;;
47960;SDS011;33721;48.852;9.936;2023-08-12T10:11:15;7.15;;;5.60;;
47960;SDS011;33721;48.852;9.936;2023-08-12T10:13:41;10.52;;;5.38;;
47960;SDS011;33721;48.852;9.936;2023-08-12T10:16:10;9.50;;;5.38;;
47960;SDS011;33721;48.852;9.936;2023-08-12T10:18:38;7.23;;;5.47;;
47960;SDS011;33721;48.852;9.936;2023-08-12T10:21:05;7.88;;;5.47;;
47960;SDS011;33721;48.852;9.936;2023-08-12T10:23:33;9.65;;;5.50;;
47960;SDS011;33721;48.852;9.936;2023-08-12T10:25:59;7.97;;;5.65;;
47960;SDS011;33721;48.852;9.936;2023-08-12T10:28:26;7.93;;;5.20;;
47960;SDS011;33721;48.852;9.936;2023-08-12T10:30:54;8.20;;;5.32;;
47960;SDS011;33721;48.852;9.936;2023-08-12T10:33:21;7.60;;;5.55;;
47960;SDS011;33721;48.852;9.936;2023-08-12T10:35:47;7.93;;;5.18;;
47960;SDS011;33721;48.852;9.936;2023-08-12T10:38:20;8.93;;;5.28;;
47960;SDS011;33721;48.852;9.936;2023-08-12T10:40:47;9.57;;;5.15;;
47960;SDS011;33721;48.852;9.936;2023-08-12T10:43:13;9.55;;;5.85;;
47960;SDS011;33721;48.852;9.936;2023-08-12T10:48:28;11.80;;;5.00;;
47960;SDS011;33721;48.852;9.936;2023-08-12T10:50:55;11.40;;;5.32;;
47960;SDS011;33721;48.852;9.936;2023-08-12T10:53:27;9.10;;;4.60;;
47960;SDS011;33721;48.852;9.936;2023-08-12T10:56:01;6.93;;;4.78;;
47960;SDS011;33721;48.852;9.936;2023-08-12T10:58:30;9.95;;;4.80;;
47960;SDS011;33721;48.852;9.936;2023-08-12T11:00:59;5.43;;;4.15;;
47960;SDS011;33721;48.852;9.936;2023-08-12T11:03:25;7.97;;;4.22;;
47960;SDS011;33721;48.852;9.936;2023-08-12T11:05:56;6.75;;;4.35;;
47960;SDS011;33721;48.852;9.936;2023-08-12T11:08:26;7.18;;;4.43;;
47960;SDS011;33721;48.852;9.936;2023-08-12T11:10:53;9.05;;;4.55;;
47960;SDS011;33721;48.852;9.936;2023-08-12T11:13:21;8.38;;;4.65;;
47960;SDS011;33721;48.852;9.936;2023-08-12T11:15:47;6.07;;;4.32;;
47960;SDS011;33721;48.852;9.936;2023-08-12T11:18:15;8.90;;;4.20;;
47960;SDS011;33721;48.852;9.936;2023-08-12T11:20:43;8.57;;;4.15;;
47960;SDS011;33721;48.852;9.936;2023-08-12T11:23:09;9.57;;;4.53;;
47960;SDS011;33721;48.852;9.936;2023-08-12T11:25:36;11.48;;;4.30;;
47960;SDS011;33721;48.852;9.936;2023-08-12T11:28:04;10.57;;;4.55;;
47960;SDS011;33721;48.852;9.936;2023-08-12T11:30:30;6.95;;;4.20;;
47960;SDS011;33721;48.852;9.936;2023-08-12T11:32:56;7.72;;;4.57;;
47960;SDS011;33721;48.852;9.936;2023-08-12T11:35:23;7.50;;;3.95;;
47960;SDS011;33721;48.852;9.936;2023-08-12T11:37:50;5.75;;;3.80;;
47960;SDS011;33721;48.852;9.936;2023-08-12T11:40:24;8.45;;;3.78;;
47960;SDS011;33721;48.852;9.936;2023-08-12T11:42:51;7.75;;;4.13;;
47960;SDS011;33721;48.852;9.936;2023-08-12T11:45:18;9.13;;;3.80;;
47960;SDS011;33721;48.852;9.936;2023-08-12T11:47:45;7.57;;;4.38;;
47960;SDS011;33721;48.852;9.936;2023-08-12T11:50:18;11.27;;;4.05;;
47960;SDS011;33721;48.852;9.936;2023-08-12T11:52:45;8.90;;;3.63;;
47960;SDS011;33721;48.852;9.936;2023-08-12T11:55:11;10.63;;;3.60;;
47960;SDS011;33721;48.852;9.936;2023-08-12T11:57:38;7.45;;;3.33;;
47960;SDS011;33721;48.852;9.936;2023-08-12T12:00:06;6.80;;;3.70;;
47960;SDS011;33721;48.852;9.936;2023-08-12T12:02:39;6.63;;;3.33;;
47960;SDS011;33721;48.852;9.936;2023-08-12T12:05:09;6.13;;;4.05;;
47960;SDS011;33721;48.852;9.936;2023-08-12T12:07:36;5.20;;;3.50;;
47960;SDS011;33721;48.852;9.936;2023-08-12T12:10:02;5.97;;;3.92;;
47960;SDS011;33721;48.852;9.936;2023-08-12T12:12:28;18.27;;;3.55;;
47960;SDS011;33721;48.852;9.936;2023-08-12T12:14:55;6.25;;;3.63;;
47960;SDS011;33721;48.852;9.936;2023-08-12T12:17:24;9.95;;;4.10;;
47960;SDS011;33721;48.852;9.936;2023-08-12T12:19:54;8.90;;;4.03;;
47960;SDS011;33721;48.852;9.936;2023-08-12T12:22:26;11.43;;;4.00;;
47960;SDS011;33721;48.852;9.936;2023-08-12T12:24:53;8.27;;;4.30;;
47960;SDS011;33721;48.852;9.936;2023-08-12T12:27:19;9.70;;;3.80;;
47960;SDS011;33721;48.852;9.936;2023-08-12T12:29:44;8.80;;;4.18;;
47960;SDS011;33721;48.852;9.936;2023-08-12T12:32:10;12.32;;;3.92;;
47960;SDS011;33721;48.852;9.936;2023-08-12T12:34:36;5.47;;;3.75;;
47960;SDS011;33721;48.852;9.936;2023-08-12T12:37:03;8.52;;;3.95;;
47960;SDS011;33721;48.852;9.936;2023-08-12T12:39:28;6.75;;;4.10;;
47960;SDS011;33721;48.852;9.936;2023-08-12T12:41:54;9.02;;;4.35;;
47960;SDS011;33721;48.852;9.936;2023-08-12T12:44:20;7.50;;;4.20;;
47960;SDS011;33721;48.852;9.936;2023-08-12T12:46:45;6.88;;;4.45;;
47960;SDS011;33721;48.852;9.936;2023-08-12T12:49:11;7.70;;;4.00;;
47960;SDS011;33721;48.852;9.936;2023-08-12T12:51:37;8.88;;;4.28;;
47960;SDS011;33721;48.852;9.936;2023-08-12T12:54:02;10.50;;;4.18;;
47960;SDS011;33721;48.852;9.936;2023-08-12T12:56:28;9.60;;;4.63;;
47960;SDS011;33721;48.852;9.936;2023-08-12T12:58:54;8.77;;;4.20;;
47960;SDS011;33721;48.852;9.936;2023-08-12T13:01:19;7.90;;;4.05;;
47960;SDS011;33721;48.852;9.936;2023-08-12T13:03:45;11.73;;;4.57;;
47960;SDS011;33721;48.852;9.936;2023-08-12T13:06:11;7.38;;;4.40;;
47960;SDS011;33721;48.852;9.936;2023-08-12T13:08:36;7.03;;;4.40;;
47960;SDS011;33721;48.852;9.936;2023-08-12T13:11:02;6.13;;;3.88;;
47960;SDS011;33721;48.852;9.936;2023-08-12T13:13:28;13.88;;;4.45;;
47960;SDS011;33721;48.852;9.936;2023-08-12T13:15:53;6.63;;;4.10;;
47960;SDS011;33721;48.852;9.936;2023-08-12T13:18:19;12.45;;;5.15;;
47960;SDS011;33721;48.852;9.936;2023-08-12T13:20:45;12.02;;;5.82;;
47960;SDS011;33721;48.852;9.936;2023-08-12T13:23:10;21.00;;;5.65;;
47960;SDS011;33721;48.852;9.936;2023-08-12T13:25:37;12.23;;;5.30;;
47960;SDS011;33721;48.852;9.936;2023-08-12T13:28:03;10.90;;;5.68;;
47960;SDS011;33721;48.852;9.936;2023-08-12T13:30:29;10.05;;;5.25;;
47960;SDS011;33721;48.852;9.936;2023-08-12T13:32:55;15.75;;;6.35;;
47960;SDS011;33721;48.852;9.936;2023-08-12T13:35:22;14.70;;;6.28;;
47960;SDS011;33721;48.852;9.936;2023-08-12T13:37:51;15.38;;;5.85;;
47960;SDS011;33721;48.852;9.936;2023-08-12T13:40:17;12.23;;;5.10;;
47960;SDS011;33721;48.852;9.936;2023-08-12T13:42:42;9.05;;;4.80;;
47960;SDS011;33721;48.852;9.936;2023-08-12T13:45:09;12.02;;;4.85;;
47960;SDS011;33721;48.852;9.936;2023-08-12T13:47:36;8.63;;;4.75;;
47960;SDS011;33721;48.852;9.936;2023-08-12T13:50:01;9.85;;;4.50;;
47960;SDS011;33721;48.852;9.936;2023-08-12T13:52:27;11.52;;;4.45;;
47960;SDS011;33721;48.852;9.936;2023-08-12T13:54:53;17.85;;;5.07;;
47960;SDS011;33721;48.852;9.936;2023-08-12T13:57:19;7.38;;;4.53;;
47960;SDS011;33721;48.852;9.936;2023-08-12T13:59:44;11.48;;;4.32;;
47960;SDS011;33721;48.852;9.936;2023-08-12T14:02:11;9.00;;;4.20;;
47960;SDS011;33721;48.852;9.936;2023-08-12T14:04:36;11.07;;;4.88;;
47960;SDS011;33721;48.852;9.936;2023-08-12T14:07:02;9.70;;;4.82;;
47960;SDS011;33721;48.852;9.936;2023-08-12T14:09:29;11.30;;;4.55;;
47960;SDS011;33721;48.852;9.936;2023-08-12T14:11:54;9.20;;;5.00;;
47960;SDS011;33721;48.852;9.936;2023-08-12T14:14:20;7.28;;;4.60;;
47960;SDS011;33721;48.852;9.936;2023-08-12T14:16:46;10.15;;;4.85;;
47960;SDS011;33721;48.852;9.936;2023-08-12T14:19:11;9.95;;;4.88;;
47960;SDS011;33721;48.852;9.936;2023-08-12T14:21:41;8.25;;;5.00;;
47960;SDS011;33721;48.852;9.936;2023-08-12T14:24:07;8.50;;;4.63;;
47960;SDS011;33721;48.852;9.936;2023-08-12T14:26:33;10.27;;;4.70;;
47960;SDS011;33721;48.852;9.936;2023-08-12T14:28:59;8.70;;;5.07;;
47960;SDS011;33721;48.852;9.936;2023-08-12T14:31:25;9.25;;;4.95;;
47960;SDS011;33721;48.852;9.936;2023-08-12T14:33:51;11.65;;;4.95;;
47960;SDS011;33721;48.852;9.936;2023-08-12T14:36:16;7.00;;;4.75;;
47960;SDS011;33721;48.852;9.936;2023-08-12T14:38:42;10.05;;;5.03;;
47960;SDS011;33721;48.852;9.936;2023-08-12T14:41:08;10.30;;;5.05;;